sensor_id;sensor_type;location;lat;lon;timestamp;P1;durP1;ratioP1;P2;durP2;ratioP2
11618;SDS011;5865;48.776;9.280;2022-10-31T00:01:33;9.13;;;5.20;;
11618;SDS011;5865;48.776;9.280;2022-10-31T00:04:00;11.10;;;5.00;;
11618;SDS011;5865;48.776;9.280;2022-10-31T00:09:09;9.53;;;5.10;;
11618;SDS011;5865;48.776;9.280;2022-10-31T00:25:03;9.07;;;4.53;;
11618;SDS011;5865;48.776;9.280;2022-10-31T00:27:45;8.93;;;5.20;;
11618;SDS011;5865;48.776;9.280;2022-10-31T00:30:26;7.63;;;4.73;;
11618;SDS011;5865;48.776;9.280;2022-10-31T00:33:08;8.50;;;4.97;;
11618;SDS011;5865;48.776;9.280;2022-10-31T00:35:37;10.77;;;5.03;;
11618;SDS011;5865;48.776;9.280;2022-10-31T00:38:18;6.70;;;4.73;;
11618;SDS011;5865;48.776;9.280;2022-10-31T00:46:54;5.87;;;4.53;;
11618;SDS011;5865;48.776;9.280;2022-10-31T00:49:38;10.23;;;4.87;;
11618;SDS011;5865;48.776;9.280;2022-10-31T00:52:19;7.43;;;4.97;;
11618;SDS011;5865;48.776;9.280;2022-10-31T00:54:50;10.20;;;5.60;;
11618;SDS011;5865;48.776;9.280;2022-10-31T00:57:22;13.37;;;5.50;;
11618;SDS011;5865;48.776;9.280;2022-10-31T00:59:53;8.60;;;5.20;;
11618;SDS011;5865;48.776;9.280;2022-10-31T01:08:39;11.20;;;5.67;;
11618;SDS011;5865;48.776;9.280;2022-10-31T01:11:22;10.73;;;5.33;;
11618;SDS011;5865;48.776;9.280;2022-10-31T01:14:06;9.63;;;4.87;;
11618;SDS011;5865;48.776;9.280;2022-10-31T01:16:34;7.57;;;5.17;;
11618;SDS011;5865;48.776;9.280;2022-10-31T01:19:04;11.90;;;5.60;;
11618;SDS011;5865;48.776;9.280;2022-10-31T01:21:46;7.90;;;5.17;;
11618;SDS011;5865;48.776;9.280;2022-10-31T01:27:37;7.87;;;4.87;;
11618;SDS011;5865;48.776;9.280;2022-10-31T01:47:07;8.20;;;5.23;;
11618;SDS011;5865;48.776;9.280;2022-10-31T01:49:52;8.33;;;5.40;;
11618;SDS011;5865;48.776;9.280;2022-10-31T01:52:24;7.03;;;5.07;;
11618;SDS011;5865;48.776;9.280;2022-10-31T01:54:59;7.53;;;4.80;;
11618;SDS011;5865;48.776;9.280;2022-10-31T02:10:44;9.73;;;5.47;;
11618;SDS011;5865;48.776;9.280;2022-10-31T02:13:18;7.40;;;4.63;;
11618;SDS011;5865;48.776;9.280;2022-10-31T02:16:00;9.47;;;5.00;;
11618;SDS011;5865;48.776;9.280;2022-10-31T02:18:33;8.50;;;4.80;;
11618;SDS011;5865;48.776;9.280;2022-10-31T02:21:15;9.03;;;5.33;;
11618;SDS011;5865;48.776;9.280;2022-10-31T02:24:00;10.13;;;5.00;;
11618;SDS011;5865;48.776;9.280;2022-10-31T02:27:00;6.87;;;4.30;;
11618;SDS011;5865;48.776;9.280;2022-10-31T02:29:57;7.30;;;4.87;;
11618;SDS011;5865;48.776;9.280;2022-10-31T02:35:44;7.97;;;5.03;;
11618;SDS011;5865;48.776;9.280;2022-10-31T02:38:38;7.47;;;4.70;;
11618;SDS011;5865;48.776;9.280;2022-10-31T02:41:35;8.00;;;4.97;;
11618;SDS011;5865;48.776;9.280;2022-10-31T02:44:12;9.43;;;5.67;;
11618;SDS011;5865;48.776;9.280;2022-10-31T02:46:50;8.70;;;4.63;;
11618;SDS011;5865;48.776;9.280;2022-10-31T02:49:23;9.03;;;5.30;;
11618;SDS011;5865;48.776;9.280;2022-10-31T02:58:10;6.80;;;5.30;;
11618;SDS011;5865;48.776;9.280;2022-10-31T03:00:49;10.37;;;4.87;;
11618;SDS011;5865;48.776;9.280;2022-10-31T03:03:22;8.20;;;5.40;;
11618;SDS011;5865;48.776;9.280;2022-10-31T03:06:08;8.87;;;5.20;;
11618;SDS011;5865;48.776;9.280;2022-10-31T03:08:47;6.80;;;5.00;;
11618;SDS011;5865;48.776;9.280;2022-10-31T03:11:36;6.97;;;5.10;;
11618;SDS011;5865;48.776;9.280;2022-10-31T03:14:26;8.67;;;5.40;;
11618;SDS011;5865;48.776;9.280;2022-10-31T03:17:12;11.10;;;5.50;;
11618;SDS011;5865;48.776;9.280;2022-10-31T03:19:56;8.40;;;5.43;;
11618;SDS011;5865;48.776;9.280;2022-10-31T03:22:29;9.83;;;5.00;;
11618;SDS011;5865;48.776;9.280;2022-10-31T03:25:14;7.73;;;5.30;;
11618;SDS011;5865;48.776;9.280;2022-10-31T03:27:56;9.47;;;5.30;;
11618;SDS011;5865;48.776;9.280;2022-10-31T03:30:41;7.07;;;4.93;;
11618;SDS011;5865;48.776;9.280;2022-10-31T03:33:26;9.17;;;5.00;;
11618;SDS011;5865;48.776;9.280;2022-10-31T03:36:00;9.53;;;5.10;;
11618;SDS011;5865;48.776;9.280;2022-10-31T03:38:43;6.97;;;5.00;;
11618;SDS011;5865;48.776;9.280;2022-10-31T03:41:30;7.93;;;5.30;;
11618;SDS011;5865;48.776;9.280;2022-10-31T03:44:02;7.37;;;5.30;;
11618;SDS011;5865;48.776;9.280;2022-10-31T03:49:51;9.10;;;5.33;;
11618;SDS011;5865;48.776;9.280;2022-10-31T03:52:22;8.60;;;5.90;;
11618;SDS011;5865;48.776;9.280;2022-10-31T03:55:07;9.33;;;5.70;;
11618;SDS011;5865;48.776;9.280;2022-10-31T03:57:48;7.27;;;5.70;;
11618;SDS011;5865;48.776;9.280;2022-10-31T04:00:32;10.47;;;5.57;;
11618;SDS011;5865;48.776;9.280;2022-10-31T04:03:14;7.83;;;5.40;;
11618;SDS011;5865;48.776;9.280;2022-10-31T04:08:53;8.50;;;5.50;;
11618;SDS011;5865;48.776;9.280;2022-10-31T04:11:34;10.20;;;5.87;;
11618;SDS011;5865;48.776;9.280;2022-10-31T04:14:31;7.13;;;5.70;;
11618;SDS011;5865;48.776;9.280;2022-10-31T04:17:14;8.33;;;5.90;;
11618;SDS011;5865;48.776;9.280;2022-10-31T04:19:46;7.63;;;5.33;;
11618;SDS011;5865;48.776;9.280;2022-10-31T04:22:32;8.07;;;5.40;;
11618;SDS011;5865;48.776;9.280;2022-10-31T04:25:00;7.87;;;5.30;;
11618;SDS011;5865;48.776;9.280;2022-10-31T04:27:28;7.70;;;5.70;;
11618;SDS011;5865;48.776;9.280;2022-10-31T04:30:10;8.87;;;5.60;;
11618;SDS011;5865;48.776;9.280;2022-10-31T04:32:42;12.23;;;5.17;;
11618;SDS011;5865;48.776;9.280;2022-10-31T04:35:24;9.57;;;5.83;;
11618;SDS011;5865;48.776;9.280;2022-10-31T04:38:10;9.13;;;5.10;;
11618;SDS011;5865;48.776;9.280;2022-10-31T04:40:39;11.90;;;5.50;;
11618;SDS011;5865;48.776;9.280;2022-10-31T04:51:04;8.83;;;5.03;;
11618;SDS011;5865;48.776;9.280;2022-10-31T04:53:33;8.87;;;5.17;;
11618;SDS011;5865;48.776;9.280;2022-10-31T04:56:26;8.20;;;5.50;;
11618;SDS011;5865;48.776;9.280;2022-10-31T04:58:59;10.47;;;5.17;;
11618;SDS011;5865;48.776;9.280;2022-10-31T05:01:31;8.90;;;5.63;;
11618;SDS011;5865;48.776;9.280;2022-10-31T05:04:00;8.83;;;5.57;;
11618;SDS011;5865;48.776;9.280;2022-10-31T05:06:29;11.80;;;6.10;;
11618;SDS011;5865;48.776;9.280;2022-10-31T05:08:58;10.03;;;5.03;;
11618;SDS011;5865;48.776;9.280;2022-10-31T05:11:25;8.30;;;5.80;;
11618;SDS011;5865;48.776;9.280;2022-10-31T05:13:56;8.90;;;5.70;;
11618;SDS011;5865;48.776;9.280;2022-10-31T05:17:02;11.93;;;5.33;;
11618;SDS011;5865;48.776;9.280;2022-10-31T05:20:07;13.90;;;6.00;;
11618;SDS011;5865;48.776;9.280;2022-10-31T05:23:03;9.87;;;5.73;;
11618;SDS011;5865;48.776;9.280;2022-10-31T05:25:33;7.20;;;5.13;;
11618;SDS011;5865;48.776;9.280;2022-10-31T05:28:02;10.53;;;4.93;;
11618;SDS011;5865;48.776;9.280;2022-10-31T05:30:30;9.27;;;5.40;;
11618;SDS011;5865;48.776;9.280;2022-10-31T05:33:07;7.27;;;5.17;;
11618;SDS011;5865;48.776;9.280;2022-10-31T05:35:55;9.10;;;5.93;;
11618;SDS011;5865;48.776;9.280;2022-10-31T05:38:40;8.93;;;5.70;;
11618;SDS011;5865;48.776;9.280;2022-10-31T05:41:15;8.23;;;5.63;;
11618;SDS011;5865;48.776;9.280;2022-10-31T05:43:45;9.83;;;5.63;;
11618;SDS011;5865;48.776;9.280;2022-10-31T05:46:14;10.30;;;6.03;;
11618;SDS011;5865;48.776;9.280;2022-10-31T05:49:20;9.93;;;5.77;;
11618;SDS011;5865;48.776;9.280;2022-10-31T05:52:01;9.93;;;5.37;;
11618;SDS011;5865;48.776;9.280;2022-10-31T05:54:50;8.00;;;5.60;;
11618;SDS011;5865;48.776;9.280;2022-10-31T06:00:32;8.53;;;5.57;;
11618;SDS011;5865;48.776;9.280;2022-10-31T06:03:06;8.93;;;5.90;;
11618;SDS011;5865;48.776;9.280;2022-10-31T06:05:44;11.03;;;6.23;;
11618;SDS011;5865;48.776;9.280;2022-10-31T06:08:12;8.17;;;5.23;;
11618;SDS011;5865;48.776;9.280;2022-10-31T06:10:41;9.37;;;5.70;;
11618;SDS011;5865;48.776;9.280;2022-10-31T06:13:26;10.27;;;6.13;;
11618;SDS011;5865;48.776;9.280;2022-10-31T06:16:01;8.53;;;6.00;;
11618;SDS011;5865;48.776;9.280;2022-10-31T06:18:34;11.47;;;6.53;;
11618;SDS011;5865;48.776;9.280;2022-10-31T06:21:01;11.73;;;6.60;;
11618;SDS011;5865;48.776;9.280;2022-10-31T06:23:28;8.60;;;5.50;;
11618;SDS011;5865;48.776;9.280;2022-10-31T06:26:16;12.23;;;5.70;;
11618;SDS011;5865;48.776;9.280;2022-10-31T06:37:57;8.80;;;5.77;;
11618;SDS011;5865;48.776;9.280;2022-10-31T06:40:40;8.80;;;6.03;;
11618;SDS011;5865;48.776;9.280;2022-10-31T06:43:25;9.17;;;5.80;;
11618;SDS011;5865;48.776;9.280;2022-10-31T06:46:19;10.97;;;5.93;;
11618;SDS011;5865;48.776;9.280;2022-10-31T06:49:13;8.77;;;5.67;;
11618;SDS011;5865;48.776;9.280;2022-10-31T06:51:59;10.33;;;6.43;;
11618;SDS011;5865;48.776;9.280;2022-10-31T07:00:53;10.80;;;6.50;;
11618;SDS011;5865;48.776;9.280;2022-10-31T07:03:34;11.00;;;6.70;;
11618;SDS011;5865;48.776;9.280;2022-10-31T07:06:15;14.23;;;6.90;;
11618;SDS011;5865;48.776;9.280;2022-10-31T07:08:56;8.87;;;6.27;;
11618;SDS011;5865;48.776;9.280;2022-10-31T07:11:25;10.50;;;7.00;;
11618;SDS011;5865;48.776;9.280;2022-10-31T07:14:05;9.43;;;6.63;;
11618;SDS011;5865;48.776;9.280;2022-10-31T07:16:47;11.87;;;6.90;;
11618;SDS011;5865;48.776;9.280;2022-10-31T07:19:25;12.93;;;8.07;;
11618;SDS011;5865;48.776;9.280;2022-10-31T07:21:56;11.87;;;7.30;;
11618;SDS011;5865;48.776;9.280;2022-10-31T07:24:28;8.83;;;6.80;;
11618;SDS011;5865;48.776;9.280;2022-10-31T07:27:15;10.13;;;7.20;;
11618;SDS011;5865;48.776;9.280;2022-10-31T07:29:45;10.10;;;7.13;;
11618;SDS011;5865;48.776;9.280;2022-10-31T07:32:14;11.53;;;7.10;;
11618;SDS011;5865;48.776;9.280;2022-10-31T07:34:49;11.87;;;7.10;;
11618;SDS011;5865;48.776;9.280;2022-10-31T07:37:22;14.00;;;8.57;;
11618;SDS011;5865;48.776;9.280;2022-10-31T07:39:53;17.53;;;13.30;;
11618;SDS011;5865;48.776;9.280;2022-10-31T07:42:23;17.67;;;11.40;;
11618;SDS011;5865;48.776;9.280;2022-10-31T07:44:55;13.33;;;10.03;;
11618;SDS011;5865;48.776;9.280;2022-10-31T07:47:54;12.73;;;9.70;;
11618;SDS011;5865;48.776;9.280;2022-10-31T07:50:41;14.57;;;9.57;;
11618;SDS011;5865;48.776;9.280;2022-10-31T07:53:29;10.70;;;7.50;;
11618;SDS011;5865;48.776;9.280;2022-10-31T07:56:08;12.27;;;8.77;;
11618;SDS011;5865;48.776;9.280;2022-10-31T07:58:39;12.00;;;7.20;;
11618;SDS011;5865;48.776;9.280;2022-10-31T08:01:11;11.50;;;7.03;;
11618;SDS011;5865;48.776;9.280;2022-10-31T08:03:50;9.60;;;7.20;;
11618;SDS011;5865;48.776;9.280;2022-10-31T08:06:50;9.73;;;6.20;;
11618;SDS011;5865;48.776;9.280;2022-10-31T08:09:30;9.80;;;6.37;;
11618;SDS011;5865;48.776;9.280;2022-10-31T08:12:03;12.37;;;7.73;;
11618;SDS011;5865;48.776;9.280;2022-10-31T08:14:32;8.60;;;6.57;;
11618;SDS011;5865;48.776;9.280;2022-10-31T08:17:01;10.70;;;6.63;;
11618;SDS011;5865;48.776;9.280;2022-10-31T08:19:38;11.67;;;7.30;;
11618;SDS011;5865;48.776;9.280;2022-10-31T08:22:11;10.10;;;6.10;;
11618;SDS011;5865;48.776;9.280;2022-10-31T08:24:39;11.17;;;6.47;;
11618;SDS011;5865;48.776;9.280;2022-10-31T08:27:06;10.03;;;6.07;;
11618;SDS011;5865;48.776;9.280;2022-10-31T08:29:37;8.03;;;6.07;;
11618;SDS011;5865;48.776;9.280;2022-10-31T08:35:31;8.10;;;5.60;;
11618;SDS011;5865;48.776;9.280;2022-10-31T08:38:40;13.67;;;5.73;;
11618;SDS011;5865;48.776;9.280;2022-10-31T08:41:09;9.93;;;5.10;;
11618;SDS011;5865;48.776;9.280;2022-10-31T08:43:40;7.07;;;5.10;;
11618;SDS011;5865;48.776;9.280;2022-10-31T08:46:22;8.20;;;5.77;;
11618;SDS011;5865;48.776;9.280;2022-10-31T08:49:03;10.00;;;5.13;;
11618;SDS011;5865;48.776;9.280;2022-10-31T08:51:50;9.40;;;5.27;;
11618;SDS011;5865;48.776;9.280;2022-10-31T08:54:36;8.97;;;5.13;;
11618;SDS011;5865;48.776;9.280;2022-10-31T08:57:38;9.37;;;5.87;;
11618;SDS011;5865;48.776;9.280;2022-10-31T09:00:06;8.00;;;5.03;;
11618;SDS011;5865;48.776;9.280;2022-10-31T09:02:56;6.77;;;4.90;;
11618;SDS011;5865;48.776;9.280;2022-10-31T09:05:38;8.23;;;4.63;;
11618;SDS011;5865;48.776;9.280;2022-10-31T09:11:24;7.93;;;4.47;;
11618;SDS011;5865;48.776;9.280;2022-10-31T09:14:34;9.80;;;4.60;;
11618;SDS011;5865;48.776;9.280;2022-10-31T09:17:34;9.00;;;4.80;;
11618;SDS011;5865;48.776;9.280;2022-10-31T09:20:27;7.00;;;4.60;;
11618;SDS011;5865;48.776;9.280;2022-10-31T09:23:15;9.30;;;4.67;;
11618;SDS011;5865;48.776;9.280;2022-10-31T09:25:59;10.47;;;5.27;;
11618;SDS011;5865;48.776;9.280;2022-10-31T09:34:50;7.72;;;4.35;;
11618;SDS011;5865;48.776;9.280;2022-10-31T09:37:24;11.90;;;6.03;;
11618;SDS011;5865;48.776;9.280;2022-10-31T09:40:11;7.67;;;4.80;;
11618;SDS011;5865;48.776;9.280;2022-10-31T09:42:49;7.23;;;5.07;;
11618;SDS011;5865;48.776;9.280;2022-10-31T09:45:24;8.23;;;4.45;;
11618;SDS011;5865;48.776;9.280;2022-10-31T09:48:11;8.20;;;5.28;;
11618;SDS011;5865;48.776;9.280;2022-10-31T09:54:15;9.60;;;5.22;;
11618;SDS011;5865;48.776;9.280;2022-10-31T09:57:01;8.93;;;5.70;;
11618;SDS011;5865;48.776;9.280;2022-10-31T09:59:49;10.77;;;6.00;;
11618;SDS011;5865;48.776;9.280;2022-10-31T10:02:39;9.20;;;4.97;;
11618;SDS011;5865;48.776;9.280;2022-10-31T10:05:09;11.25;;;4.80;;
11618;SDS011;5865;48.776;9.280;2022-10-31T10:07:44;8.23;;;4.68;;
11618;SDS011;5865;48.776;9.280;2022-10-31T10:10:58;7.38;;;4.28;;
11618;SDS011;5865;48.776;9.280;2022-10-31T10:13:55;14.00;;;4.70;;
11618;SDS011;5865;48.776;9.280;2022-10-31T10:16:45;7.13;;;4.10;;
11618;SDS011;5865;48.776;9.280;2022-10-31T10:19:21;8.43;;;4.35;;
11618;SDS011;5865;48.776;9.280;2022-10-31T10:22:05;8.65;;;4.03;;
11618;SDS011;5865;48.776;9.280;2022-10-31T10:24:55;7.63;;;3.85;;
11618;SDS011;5865;48.776;9.280;2022-10-31T10:39:54;7.23;;;4.50;;
11618;SDS011;5865;48.776;9.280;2022-10-31T10:42:42;6.10;;;3.70;;
11618;SDS011;5865;48.776;9.280;2022-10-31T10:45:32;11.75;;;4.40;;
11618;SDS011;5865;48.776;9.280;2022-10-31T10:48:26;8.00;;;3.92;;
11618;SDS011;5865;48.776;9.280;2022-10-31T10:51:31;10.43;;;3.85;;
11618;SDS011;5865;48.776;9.280;2022-10-31T10:54:29;8.27;;;4.90;;
11618;SDS011;5865;48.776;9.280;2022-10-31T11:06:24;8.88;;;3.92;;
11618;SDS011;5865;48.776;9.280;2022-10-31T11:09:14;9.45;;;4.05;;
11618;SDS011;5865;48.776;9.280;2022-10-31T11:12:15;7.78;;;4.25;;
11618;SDS011;5865;48.776;9.280;2022-10-31T11:14:55;8.23;;;4.32;;
11618;SDS011;5865;48.776;9.280;2022-10-31T11:17:40;6.75;;;4.18;;
11618;SDS011;5865;48.776;9.280;2022-10-31T11:20:42;5.22;;;3.83;;
11618;SDS011;5865;48.776;9.280;2022-10-31T11:33:12;6.90;;;4.00;;
11618;SDS011;5865;48.776;9.280;2022-10-31T11:35:53;9.02;;;4.20;;
11618;SDS011;5865;48.776;9.280;2022-10-31T11:38:21;7.43;;;3.95;;
11618;SDS011;5865;48.776;9.280;2022-10-31T11:40:53;8.45;;;4.00;;
11618;SDS011;5865;48.776;9.280;2022-10-31T11:43:22;6.70;;;3.75;;
11618;SDS011;5865;48.776;9.280;2022-10-31T11:46:15;7.05;;;4.45;;
11618;SDS011;5865;48.776;9.280;2022-10-31T11:48:53;7.47;;;4.43;;
11618;SDS011;5865;48.776;9.280;2022-10-31T11:51:24;7.93;;;4.22;;
11618;SDS011;5865;48.776;9.280;2022-10-31T11:53:53;10.57;;;4.47;;
11618;SDS011;5865;48.776;9.280;2022-10-31T11:56:23;8.73;;;3.97;;
11618;SDS011;5865;48.776;9.280;2022-10-31T11:58:55;7.03;;;4.35;;
11618;SDS011;5865;48.776;9.280;2022-10-31T12:01:24;8.70;;;3.85;;
11618;SDS011;5865;48.776;9.280;2022-10-31T12:04:00;7.07;;;4.10;;
11618;SDS011;5865;48.776;9.280;2022-10-31T12:09:26;10.45;;;4.60;;
11618;SDS011;5865;48.776;9.280;2022-10-31T12:12:07;8.70;;;4.50;;
11618;SDS011;5865;48.776;9.280;2022-10-31T12:14:39;10.65;;;4.40;;
11618;SDS011;5865;48.776;9.280;2022-10-31T12:17:14;7.53;;;4.15;;
11618;SDS011;5865;48.776;9.280;2022-10-31T12:20:02;6.45;;;3.47;;
11618;SDS011;5865;48.776;9.280;2022-10-31T12:22:36;6.82;;;4.20;;
11618;SDS011;5865;48.776;9.280;2022-10-31T12:25:12;5.53;;;3.50;;
11618;SDS011;5865;48.776;9.280;2022-10-31T12:28:17;8.45;;;3.60;;
11618;SDS011;5865;48.776;9.280;2022-10-31T12:31:20;6.68;;;3.70;;
11618;SDS011;5865;48.776;9.280;2022-10-31T12:34:02;6.55;;;3.78;;
11618;SDS011;5865;48.776;9.280;2022-10-31T12:36:56;6.85;;;3.58;;
11618;SDS011;5865;48.776;9.280;2022-10-31T12:39:32;8.48;;;4.13;;
11618;SDS011;5865;48.776;9.280;2022-10-31T12:42:19;8.23;;;4.47;;
11618;SDS011;5865;48.776;9.280;2022-10-31T12:45:00;9.93;;;4.50;;
11618;SDS011;5865;48.776;9.280;2022-10-31T12:47:54;6.63;;;3.80;;
11618;SDS011;5865;48.776;9.280;2022-10-31T12:51:05;6.32;;;3.78;;
11618;SDS011;5865;48.776;9.280;2022-10-31T12:54:03;7.40;;;3.47;;
11618;SDS011;5865;48.776;9.280;2022-10-31T12:56:48;9.70;;;4.07;;
11618;SDS011;5865;48.776;9.280;2022-10-31T12:59:21;6.57;;;3.55;;
11618;SDS011;5865;48.776;9.280;2022-10-31T13:01:58;7.45;;;3.72;;
11618;SDS011;5865;48.776;9.280;2022-10-31T13:04:33;7.43;;;3.80;;
11618;SDS011;5865;48.776;9.280;2022-10-31T13:07:12;12.07;;;3.67;;
11618;SDS011;5865;48.776;9.280;2022-10-31T13:10:15;8.48;;;3.38;;
11618;SDS011;5865;48.776;9.280;2022-10-31T13:12:49;8.98;;;4.22;;
11618;SDS011;5865;48.776;9.280;2022-10-31T13:15:20;7.90;;;3.80;;
11618;SDS011;5865;48.776;9.280;2022-10-31T13:17:50;8.38;;;4.10;;
11618;SDS011;5865;48.776;9.280;2022-10-31T13:20:34;8.23;;;3.83;;
11618;SDS011;5865;48.776;9.280;2022-10-31T13:23:09;6.47;;;4.15;;
11618;SDS011;5865;48.776;9.280;2022-10-31T13:25:51;8.07;;;3.83;;
11618;SDS011;5865;48.776;9.280;2022-10-31T13:28:24;8.10;;;3.85;;
11618;SDS011;5865;48.776;9.280;2022-10-31T13:31:02;8.05;;;3.53;;
11618;SDS011;5865;48.776;9.280;2022-10-31T13:33:37;5.15;;;3.50;;
11618;SDS011;5865;48.776;9.280;2022-10-31T13:36:14;7.82;;;3.45;;
11618;SDS011;5865;48.776;9.280;2022-10-31T13:38:53;9.57;;;4.15;;
11618;SDS011;5865;48.776;9.280;2022-10-31T13:41:38;7.20;;;4.22;;
11618;SDS011;5865;48.776;9.280;2022-10-31T13:44:13;9.48;;;4.40;;
11618;SDS011;5865;48.776;9.280;2022-10-31T13:46:42;9.07;;;5.03;;
11618;SDS011;5865;48.776;9.280;2022-10-31T13:49:24;9.35;;;5.10;;
11618;SDS011;5865;48.776;9.280;2022-10-31T13:52:04;12.02;;;4.97;;
11618;SDS011;5865;48.776;9.280;2022-10-31T13:54:43;6.65;;;4.13;;
11618;SDS011;5865;48.776;9.280;2022-10-31T14:00:02;6.40;;;3.28;;
11618;SDS011;5865;48.776;9.280;2022-10-31T14:02:44;6.07;;;4.18;;
11618;SDS011;5865;48.776;9.280;2022-10-31T14:05:19;8.77;;;3.60;;
11618;SDS011;5865;48.776;9.280;2022-10-31T14:07:50;11.85;;;4.43;;
11618;SDS011;5865;48.776;9.280;2022-10-31T14:10:24;8.35;;;4.00;;
11618;SDS011;5865;48.776;9.280;2022-10-31T14:13:03;9.90;;;4.00;;
11618;SDS011;5865;48.776;9.280;2022-10-31T14:15:32;7.72;;;3.40;;
11618;SDS011;5865;48.776;9.280;2022-10-31T14:18:00;6.90;;;3.40;;
11618;SDS011;5865;48.776;9.280;2022-10-31T14:20:38;6.97;;;3.75;;
11618;SDS011;5865;48.776;9.280;2022-10-31T14:23:10;7.00;;;3.10;;
11618;SDS011;5865;48.776;9.280;2022-10-31T14:25:39;7.55;;;3.30;;
11618;SDS011;5865;48.776;9.280;2022-10-31T14:34:18;8.38;;;3.63;;
11618;SDS011;5865;48.776;9.280;2022-10-31T14:36:54;4.78;;;3.22;;
11618;SDS011;5865;48.776;9.280;2022-10-31T14:39:54;12.27;;;4.20;;
11618;SDS011;5865;48.776;9.280;2022-10-31T14:42:40;7.78;;;3.45;;
11618;SDS011;5865;48.776;9.280;2022-10-31T14:45:22;6.35;;;3.58;;
11618;SDS011;5865;48.776;9.280;2022-10-31T14:47:59;10.55;;;3.65;;
11618;SDS011;5865;48.776;9.280;2022-10-31T14:50:38;7.57;;;3.50;;
11618;SDS011;5865;48.776;9.280;2022-10-31T14:53:11;7.28;;;3.40;;
11618;SDS011;5865;48.776;9.280;2022-10-31T14:55:43;10.63;;;3.85;;
11618;SDS011;5865;48.776;9.280;2022-10-31T14:58:20;6.50;;;3.20;;
11618;SDS011;5865;48.776;9.280;2022-10-31T15:00:53;7.60;;;3.40;;
11618;SDS011;5865;48.776;9.280;2022-10-31T15:03:23;6.80;;;3.20;;
11618;SDS011;5865;48.776;9.280;2022-10-31T15:05:56;6.90;;;3.20;;
11618;SDS011;5865;48.776;9.280;2022-10-31T15:08:26;8.63;;;3.40;;
11618;SDS011;5865;48.776;9.280;2022-10-31T15:11:09;6.85;;;3.20;;
11618;SDS011;5865;48.776;9.280;2022-10-31T15:13:41;5.55;;;3.38;;
11618;SDS011;5865;48.776;9.280;2022-10-31T15:16:18;6.93;;;3.67;;
11618;SDS011;5865;48.776;9.280;2022-10-31T15:18:57;6.28;;;3.08;;
11618;SDS011;5865;48.776;9.280;2022-10-31T15:21:27;7.80;;;3.15;;
11618;SDS011;5865;48.776;9.280;2022-10-31T15:23:57;4.93;;;3.35;;
11618;SDS011;5865;48.776;9.280;2022-10-31T15:26:27;9.18;;;4.03;;
11618;SDS011;5865;48.776;9.280;2022-10-31T15:28:57;6.80;;;4.10;;
11618;SDS011;5865;48.776;9.280;2022-10-31T15:31:31;6.95;;;3.65;;
11618;SDS011;5865;48.776;9.280;2022-10-31T15:34:02;5.78;;;3.65;;
11618;SDS011;5865;48.776;9.280;2022-10-31T15:36:32;10.05;;;4.07;;
11618;SDS011;5865;48.776;9.280;2022-10-31T15:38:59;6.55;;;3.63;;
11618;SDS011;5865;48.776;9.280;2022-10-31T15:41:29;7.53;;;3.70;;
11618;SDS011;5865;48.776;9.280;2022-10-31T15:44:00;6.40;;;3.70;;
11618;SDS011;5865;48.776;9.280;2022-10-31T15:46:35;5.63;;;3.78;;
11618;SDS011;5865;48.776;9.280;2022-10-31T15:49:04;8.45;;;4.32;;
11618;SDS011;5865;48.776;9.280;2022-10-31T15:51:38;6.35;;;3.90;;
11618;SDS011;5865;48.776;9.280;2022-10-31T15:54:10;5.50;;;3.30;;
11618;SDS011;5865;48.776;9.280;2022-10-31T15:56:51;7.05;;;4.10;;
11618;SDS011;5865;48.776;9.280;2022-10-31T15:59:20;5.38;;;3.72;;
11618;SDS011;5865;48.776;9.280;2022-10-31T16:02:02;8.02;;;4.18;;
11618;SDS011;5865;48.776;9.280;2022-10-31T16:04:36;7.80;;;4.30;;
11618;SDS011;5865;48.776;9.280;2022-10-31T16:07:12;7.38;;;4.10;;
11618;SDS011;5865;48.776;9.280;2022-10-31T16:09:48;12.52;;;5.45;;
11618;SDS011;5865;48.776;9.280;2022-10-31T16:12:17;8.43;;;4.50;;
11618;SDS011;5865;48.776;9.280;2022-10-31T16:14:45;9.95;;;5.43;;
11618;SDS011;5865;48.776;9.280;2022-10-31T16:17:15;7.80;;;5.10;;
11618;SDS011;5865;48.776;9.280;2022-10-31T16:19:47;8.70;;;5.00;;
11618;SDS011;5865;48.776;9.280;2022-10-31T16:22:20;8.53;;;4.97;;
11618;SDS011;5865;48.776;9.280;2022-10-31T16:24:50;8.20;;;4.43;;
11618;SDS011;5865;48.776;9.280;2022-10-31T16:27:26;8.60;;;5.10;;
11618;SDS011;5865;48.776;9.280;2022-10-31T16:29:56;9.27;;;5.20;;
11618;SDS011;5865;48.776;9.280;2022-10-31T16:32:36;8.77;;;4.77;;
11618;SDS011;5865;48.776;9.280;2022-10-31T16:35:23;9.33;;;4.80;;
11618;SDS011;5865;48.776;9.280;2022-10-31T16:37:51;10.97;;;5.57;;
11618;SDS011;5865;48.776;9.280;2022-10-31T16:40:19;11.20;;;4.97;;
11618;SDS011;5865;48.776;9.280;2022-10-31T16:42:46;10.23;;;5.20;;
11618;SDS011;5865;48.776;9.280;2022-10-31T16:45:15;9.93;;;5.27;;
11618;SDS011;5865;48.776;9.280;2022-10-31T16:47:44;9.43;;;5.20;;
11618;SDS011;5865;48.776;9.280;2022-10-31T16:50:12;11.20;;;5.90;;
11618;SDS011;5865;48.776;9.280;2022-10-31T16:52:41;10.33;;;5.60;;
11618;SDS011;5865;48.776;9.280;2022-10-31T16:55:10;12.97;;;6.50;;
11618;SDS011;5865;48.776;9.280;2022-10-31T16:57:38;9.30;;;6.00;;
11618;SDS011;5865;48.776;9.280;2022-10-31T17:00:12;11.43;;;7.00;;
11618;SDS011;5865;48.776;9.280;2022-10-31T17:02:40;13.43;;;6.40;;
11618;SDS011;5865;48.776;9.280;2022-10-31T17:05:10;10.80;;;6.73;;
11618;SDS011;5865;48.776;9.280;2022-10-31T17:07:39;10.93;;;6.37;;
11618;SDS011;5865;48.776;9.280;2022-10-31T17:10:06;11.03;;;6.50;;
11618;SDS011;5865;48.776;9.280;2022-10-31T17:12:34;13.37;;;6.40;;
11618;SDS011;5865;48.776;9.280;2022-10-31T17:15:02;10.47;;;6.83;;
11618;SDS011;5865;48.776;9.280;2022-10-31T17:17:30;10.17;;;6.93;;
11618;SDS011;5865;48.776;9.280;2022-10-31T17:19:57;13.53;;;8.23;;
11618;SDS011;5865;48.776;9.280;2022-10-31T17:22:25;13.50;;;9.33;;
11618;SDS011;5865;48.776;9.280;2022-10-31T17:24:53;12.83;;;7.73;;
11618;SDS011;5865;48.776;9.280;2022-10-31T17:27:20;12.77;;;7.87;;
11618;SDS011;5865;48.776;9.280;2022-10-31T17:29:47;12.73;;;8.37;;
11618;SDS011;5865;48.776;9.280;2022-10-31T17:32:14;12.77;;;8.37;;
11618;SDS011;5865;48.776;9.280;2022-10-31T17:34:41;15.37;;;9.30;;
11618;SDS011;5865;48.776;9.280;2022-10-31T17:37:08;17.10;;;10.53;;
11618;SDS011;5865;48.776;9.280;2022-10-31T17:39:37;11.30;;;7.90;;
11618;SDS011;5865;48.776;9.280;2022-10-31T17:42:04;30.20;;;14.03;;
11618;SDS011;5865;48.776;9.280;2022-10-31T17:44:31;30.07;;;17.23;;
11618;SDS011;5865;48.776;9.280;2022-10-31T17:46:58;17.17;;;9.73;;
11618;SDS011;5865;48.776;9.280;2022-10-31T17:49:26;18.13;;;10.00;;
11618;SDS011;5865;48.776;9.280;2022-10-31T17:51:53;29.27;;;18.97;;
11618;SDS011;5865;48.776;9.280;2022-10-31T17:54:20;46.30;;;32.60;;
11618;SDS011;5865;48.776;9.280;2022-10-31T17:56:49;47.00;;;31.97;;
11618;SDS011;5865;48.776;9.280;2022-10-31T17:59:17;20.40;;;14.97;;
11618;SDS011;5865;48.776;9.280;2022-10-31T18:01:44;39.47;;;26.50;;
11618;SDS011;5865;48.776;9.280;2022-10-31T18:04:11;36.33;;;23.30;;
11618;SDS011;5865;48.776;9.280;2022-10-31T18:06:38;28.77;;;20.10;;
11618;SDS011;5865;48.776;9.280;2022-10-31T18:09:05;26.77;;;18.90;;
11618;SDS011;5865;48.776;9.280;2022-10-31T18:11:32;14.23;;;9.50;;
11618;SDS011;5865;48.776;9.280;2022-10-31T18:14:00;11.33;;;7.53;;
11618;SDS011;5865;48.776;9.280;2022-10-31T18:16:27;13.60;;;8.57;;
11618;SDS011;5865;48.776;9.280;2022-10-31T18:18:56;16.80;;;10.47;;
11618;SDS011;5865;48.776;9.280;2022-10-31T18:21:25;17.37;;;11.30;;
11618;SDS011;5865;48.776;9.280;2022-10-31T18:23:53;17.00;;;12.17;;
11618;SDS011;5865;48.776;9.280;2022-10-31T18:26:21;19.03;;;12.87;;
11618;SDS011;5865;48.776;9.280;2022-10-31T18:28:48;20.47;;;12.63;;
11618;SDS011;5865;48.776;9.280;2022-10-31T18:31:17;53.60;;;33.10;;
11618;SDS011;5865;48.776;9.280;2022-10-31T18:33:44;48.53;;;30.53;;
11618;SDS011;5865;48.776;9.280;2022-10-31T18:36:11;31.27;;;19.87;;
11618;SDS011;5865;48.776;9.280;2022-10-31T18:38:40;15.20;;;9.97;;
11618;SDS011;5865;48.776;9.280;2022-10-31T18:41:09;18.60;;;10.07;;